sensor_id;sensor_type;location;lat;lon;timestamp;pressure;altitude;pressure_sealevel;temperature;humidity
7333;BME280;3707;43.618;25.342;2023-02-23T00:00:24;100097.78;;;7.26;100.00
7333;BME280;3707;43.618;25.342;2023-02-23T00:02:54;100052.94;;;6.91;100.00
7333;BME280;3707;43.618;25.342;2023-02-23T00:05:23;100094.81;;;7.14;100.00
7333;BME280;3707;43.618;25.342;2023-02-23T00:07:50;100094.81;;;7.13;100.00
7333;BME280;3707;43.618;25.342;2023-02-23T00:10:18;100097.25;;;7.08;100.00
7333;BME280;3707;43.618;25.342;2023-02-23T00:12:46;100090.25;;;7.04;100.00
7333;BME280;3707;43.618;25.342;2023-02-23T00:15:15;100097.19;;;6.78;100.00
7333;BME280;3707;43.618;25.342;2023-02-23T00:17:42;100101.47;;;6.78;100.00
7333;BME280;3707;43.618;25.342;2023-02-23T00:20:10;100100.81;;;6.83;100.00
7333;BME280;3707;43.618;25.342;2023-02-23T00:22:38;100101.75;;;6.87;100.00
7333;BME280;3707;43.618;25.342;2023-02-23T00:25:06;100103.59;;;6.91;100.00
7333;BME280;3707;43.618;25.342;2023-02-23T00:27:35;100107.88;;;6.90;100.00
7333;BME280;3707;43.618;25.342;2023-02-23T00:30:04;100056.28;;;6.61;100.00
7333;BME280;3707;43.618;25.342;2023-02-23T00:32:34;100101.59;;;6.81;100.00
7333;BME280;3707;43.618;25.342;2023-02-23T00:35:01;100106.53;;;6.75;100.00
7333;BME280;3707;43.618;25.342;2023-02-23T00:37:28;100081.06;;;6.56;100.00
7333;BME280;3707;43.618;25.342;2023-02-23T00:39:55;100086.13;;;6.53;100.00
7333;BME280;3707;43.618;25.342;2023-02-23T00:42:22;100085.34;;;6.57;100.00
7333;BME280;3707;43.618;25.342;2023-02-23T00:44:49;100097.41;;;6.58;100.00
7333;BME280;3707;43.618;25.342;2023-02-23T00:47:17;100099.28;;;6.62;100.00
7333;BME280;3707;43.618;25.342;2023-02-23T00:49:45;100104.59;;;6.68;100.00
7333;BME280;3707;43.618;25.342;2023-02-23T00:52:11;100082.38;;;6.43;100.00
7333;BME280;3707;43.618;25.342;2023-02-23T00:54:40;100102.66;;;6.61;100.00
7333;BME280;3707;43.618;25.342;2023-02-23T00:57:07;100101.75;;;6.59;100.00
7333;BME280;3707;43.618;25.342;2023-02-23T00:59:34;100102.66;;;6.61;100.00
7333;BME280;3707;43.618;25.342;2023-02-23T01:02:01;100103.72;;;6.67;100.00
7333;BME280;3707;43.618;25.342;2023-02-23T01:04:28;100108.03;;;6.67;100.00
7333;BME280;3707;43.618;25.342;2023-02-23T01:06:56;100110.72;;;6.71;100.00
7333;BME280;3707;43.618;25.342;2023-02-23T01:09:23;100066.78;;;6.38;100.00
7333;BME280;3707;43.618;25.342;2023-02-23T01:11:54;100111.13;;;6.57;100.00
7333;BME280;3707;43.618;25.342;2023-02-23T01:14:22;100083.97;;;6.39;100.00
7333;BME280;3707;43.618;25.342;2023-02-23T01:16:49;100115.72;;;6.38;100.00
7333;BME280;3707;43.618;25.342;2023-02-23T01:19:16;100108.00;;;6.38;100.00
7333;BME280;3707;43.618;25.342;2023-02-23T01:21:43;100099.41;;;6.39;100.00
7333;BME280;3707;43.618;25.342;2023-02-23T01:24:12;100108.50;;;6.28;100.00
7333;BME280;3707;43.618;25.342;2023-02-23T01:26:40;100056.69;;;5.92;100.00
7333;BME280;3707;43.618;25.342;2023-02-23T01:29:09;100098.22;;;6.03;100.00
7333;BME280;3707;43.618;25.342;2023-02-23T01:31:37;100093.69;;;5.96;100.00
7333;BME280;3707;43.618;25.342;2023-02-23T01:34:05;100093.69;;;5.96;100.00
7333;BME280;3707;43.618;25.342;2023-02-23T01:36:33;100089.75;;;6.06;100.00
7333;BME280;3707;43.618;25.342;2023-02-23T01:39:01;100091.44;;;6.05;100.00
7333;BME280;3707;43.618;25.342;2023-02-23T01:41:34;100096.16;;;6.18;100.00
7333;BME280;3707;43.618;25.342;2023-02-23T01:44:03;100099.72;;;6.22;100.00
7333;BME280;3707;43.618;25.342;2023-02-23T01:46:33;100103.94;;;6.20;100.00
7333;BME280;3707;43.618;25.342;2023-02-23T01:49:02;100100.16;;;6.10;100.00
7333;BME280;3707;43.618;25.342;2023-02-23T01:51:31;100087.22;;;6.07;100.00
7333;BME280;3707;43.618;25.342;2023-02-23T01:54:03;100094.63;;;5.98;100.00
7333;BME280;3707;43.618;25.342;2023-02-23T01:56:39;100098.38;;;6.08;100.00
7333;BME280;3707;43.618;25.342;2023-02-23T01:59:09;100108.03;;;6.13;100.00
7333;BME280;3707;43.618;25.342;2023-02-23T02:01:37;100095.97;;;6.12;100.00
7333;BME280;3707;43.618;25.342;2023-02-23T02:04:07;100100.31;;;6.13;100.00
7333;BME280;3707;43.618;25.342;2023-02-23T02:06:35;100102.00;;;6.13;100.00
7333;BME280;3707;43.618;25.342;2023-02-23T02:09:06;100082.84;;;6.05;100.00
7333;BME280;3707;43.618;25.342;2023-02-23T02:11:36;100092.56;;;6.13;100.00
7333;BME280;3707;43.618;25.342;2023-02-23T02:14:06;100109.19;;;6.23;100.00
7333;BME280;3707;43.618;25.342;2023-02-23T02:16:58;100113.63;;;6.27;100.00
7333;BME280;3707;43.618;25.342;2023-02-23T02:20:09;100117.72;;;6.22;100.00
7333;BME280;3707;43.618;25.342;2023-02-23T02:26:01;100111.50;;;6.15;100.00
7333;BME280;3707;43.618;25.342;2023-02-23T02:28:43;100121.88;;;6.17;100.00
7333;BME280;3707;43.618;25.342;2023-02-23T02:38:02;100128.91;;;5.97;100.00
7333;BME280;3707;43.618;25.342;2023-02-23T02:40:38;100134.03;;;5.95;100.00
7333;BME280;3707;43.618;25.342;2023-02-23T02:43:22;100133.84;;;5.91;100.00
7333;BME280;3707;43.618;25.342;2023-02-23T02:45:54;100128.00;;;5.95;100.00
7333;BME280;3707;43.618;25.342;2023-02-23T02:48:30;100111.56;;;5.91;100.00
7333;BME280;3707;43.618;25.342;2023-02-23T02:51:04;100129.00;;;6.00;100.00
7333;BME280;3707;43.618;25.342;2023-02-23T02:53:40;100130.69;;;5.99;100.00
7333;BME280;3707;43.618;25.342;2023-02-23T02:56:12;100133.13;;;5.95;100.00
7333;BME280;3707;43.618;25.342;2023-02-23T02:58:39;100130.34;;;5.89;100.00
7333;BME280;3707;43.618;25.342;2023-02-23T03:01:13;100133.25;;;5.98;100.00
7333;BME280;3707;43.618;25.342;2023-02-23T03:03:58;100105.00;;;5.76;100.00
7333;BME280;3707;43.618;25.342;2023-02-23T03:06:46;100135.81;;;5.98;100.00
7333;BME280;3707;43.618;25.342;2023-02-23T03:09:37;100121.00;;;5.91;100.00
7333;BME280;3707;43.618;25.342;2023-02-23T03:12:28;100138.38;;;5.98;100.00
7333;BME280;3707;43.618;25.342;2023-02-23T03:15:28;100114.47;;;5.77;100.00
7333;BME280;3707;43.618;25.342;2023-02-23T03:18:24;100141.56;;;5.91;100.00
7333;BME280;3707;43.618;25.342;2023-02-23T03:21:21;100120.53;;;5.79;100.00
7333;BME280;3707;43.618;25.342;2023-02-23T03:24:15;100140.06;;;5.97;100.00
7333;BME280;3707;43.618;25.342;2023-02-23T03:27:08;100135.00;;;5.99;100.00
7333;BME280;3707;43.618;25.342;2023-02-23T03:29:59;100126.94;;;5.90;100.00
7333;BME280;3707;43.618;25.342;2023-02-23T03:32:49;100140.75;;;5.92;100.00
7333;BME280;3707;43.618;25.342;2023-02-23T03:35:41;100141.47;;;5.88;100.00
7333;BME280;3707;43.618;25.342;2023-02-23T03:38:34;100146.47;;;5.85;100.00
7333;BME280;3707;43.618;25.342;2023-02-23T03:41:21;100147.44;;;5.87;100.00
7333;BME280;3707;43.618;25.342;2023-02-23T03:44:11;100141.34;;;5.85;100.00
7333;BME280;3707;43.618;25.342;2023-02-23T03:46:57;100152.44;;;5.84;100.00
7333;BME280;3707;43.618;25.342;2023-02-23T03:49:44;100123.41;;;5.63;100.00
7333;BME280;3707;43.618;25.342;2023-02-23T03:52:35;100139.75;;;6.14;100.00
7333;BME280;3707;43.618;25.342;2023-02-23T03:55:26;100153.50;;;5.89;100.00
7333;BME280;3707;43.618;25.342;2023-02-23T03:58:17;100138.13;;;5.67;100.00
7333;BME280;3707;43.618;25.342;2023-02-23T04:01:06;100144.91;;;6.14;100.00
7333;BME280;3707;43.618;25.342;2023-02-23T04:03:52;100154.63;;;5.97;100.00
7333;BME280;3707;43.618;25.342;2023-02-23T04:06:42;100111.34;;;5.62;100.00
7333;BME280;3707;43.618;25.342;2023-02-23T04:09:27;100147.81;;;5.74;100.00
7333;BME280;3707;43.618;25.342;2023-02-23T04:12:14;100141.53;;;5.67;100.00
7333;BME280;3707;43.618;25.342;2023-02-23T04:15:05;100160.44;;;5.68;100.00
7333;BME280;3707;43.618;25.342;2023-02-23T04:17:33;100157.75;;;5.65;100.00
7333;BME280;3707;43.618;25.342;2023-02-23T04:20:01;100164.31;;;5.57;100.00
7333;BME280;3707;43.618;25.342;2023-02-23T04:22:28;100136.00;;;5.31;100.00
7333;BME280;3707;43.618;25.342;2023-02-23T04:24:55;100163.50;;;5.34;100.00
7333;BME280;3707;43.618;25.342;2023-02-23T04:27:22;100160.75;;;5.29;100.00
7333;BME280;3707;43.618;25.342;2023-02-23T04:29:48;100157.34;;;5.30;100.00
7333;BME280;3707;43.618;25.342;2023-02-23T04:32:17;100149.69;;;5.32;100.00
7333;BME280;3707;43.618;25.342;2023-02-23T04:34:46;100150.69;;;5.35;100.00
7333;BME280;3707;43.618;25.342;2023-02-23T04:37:13;100158.16;;;5.29;100.00
7333;BME280;3707;43.618;25.342;2023-02-23T04:39:40;100153.03;;;5.29;100.00
7333;BME280;3707;43.618;25.342;2023-02-23T04:42:12;100066.91;;;4.71;100.00
7333;BME280;3707;43.618;25.342;2023-02-23T04:44:39;100144.72;;;5.13;100.00
7333;BME280;3707;43.618;25.342;2023-02-23T04:47:06;100153.63;;;5.22;100.00
7333;BME280;3707;43.618;25.342;2023-02-23T04:49:33;100170.09;;;5.27;100.00
7333;BME280;3707;43.618;25.342;2023-02-23T04:52:01;100152.69;;;5.20;100.00
7333;BME280;3707;43.618;25.342;2023-02-23T04:54:28;100171.41;;;5.16;100.00
7333;BME280;3707;43.618;25.342;2023-02-23T04:56:55;100171.50;;;5.19;100.00
7333;BME280;3707;43.618;25.342;2023-02-23T04:59:22;100176.53;;;5.16;100.00
7333;BME280;3707;43.618;25.342;2023-02-23T05:01:48;100180.03;;;5.18;100.00
7333;BME280;3707;43.618;25.342;2023-02-23T05:04:15;100185.16;;;5.18;100.00
7333;BME280;3707;43.618;25.342;2023-02-23T05:06:42;100155.63;;;5.07;100.00
7333;BME280;3707;43.618;25.342;2023-02-23T05:09:10;100183.94;;;5.09;100.00
7333;BME280;3707;43.618;25.342;2023-02-23T05:11:37;100187.31;;;5.08;100.00
7333;BME280;3707;43.618;25.342;2023-02-23T05:14:03;100194.75;;;5.22;100.00
7333;BME280;3707;43.618;25.342;2023-02-23T05:16:31;100195.03;;;5.30;100.00
7333;BME280;3707;43.618;25.342;2023-02-23T05:18:58;100201.94;;;5.31;100.00
7333;BME280;3707;43.618;25.342;2023-02-23T05:21:24;100200.41;;;5.36;100.00
7333;BME280;3707;43.618;25.342;2023-02-23T05:23:51;100213.25;;;5.36;100.00
7333;BME280;3707;43.618;25.342;2023-02-23T05:26:19;100208.47;;;5.45;100.00
7333;BME280;3707;43.618;25.342;2023-02-23T05:28:46;100212.56;;;5.40;100.00
7333;BME280;3707;43.618;25.342;2023-02-23T05:31:13;100211.13;;;5.24;100.00
7333;BME280;3707;43.618;25.342;2023-02-23T05:33:40;100226.16;;;5.15;100.00
7333;BME280;3707;43.618;25.342;2023-02-23T05:36:08;100204.44;;;5.07;100.00
7333;BME280;3707;43.618;25.342;2023-02-23T05:38:36;100230.53;;;5.18;100.00
7333;BME280;3707;43.618;25.342;2023-02-23T05:41:06;100224.88;;;5.26;100.00
7333;BME280;3707;43.618;25.342;2023-02-23T05:43:35;100233.19;;;5.19;100.00
7333;BME280;3707;43.618;25.342;2023-02-23T05:46:05;100238.63;;;5.27;100.00
7333;BME280;3707;43.618;25.342;2023-02-23T05:48:32;100246.16;;;5.22;100.00
7333;BME280;3707;43.618;25.342;2023-02-23T05:51:00;100241.50;;;5.34;100.00
7333;BME280;3707;43.618;25.342;2023-02-23T05:53:27;100256.34;;;5.41;100.00
7333;BME280;3707;43.618;25.342;2023-02-23T05:55:54;100252.28;;;5.48;100.00
7333;BME280;3707;43.618;25.342;2023-02-23T05:58:21;100255.97;;;5.55;100.00
7333;BME280;3707;43.618;25.342;2023-02-23T06:00:49;100258.13;;;5.66;100.00
7333;BME280;3707;43.618;25.342;2023-02-23T06:03:16;100270.16;;;5.67;100.00
7333;BME280;3707;43.618;25.342;2023-02-23T06:05:48;100276.88;;;5.86;100.00
7333;BME280;3707;43.618;25.342;2023-02-23T06:08:16;100247.41;;;5.78;100.00
7333;BME280;3707;43.618;25.342;2023-02-23T06:10:43;100242.63;;;5.87;100.00
7333;BME280;3707;43.618;25.342;2023-02-23T06:13:10;100282.19;;;6.13;100.00
7333;BME280;3707;43.618;25.342;2023-02-23T06:15:37;100267.38;;;6.07;100.00
7333;BME280;3707;43.618;25.342;2023-02-23T06:18:06;100283.38;;;6.22;100.00
7333;BME280;3707;43.618;25.342;2023-02-23T06:20:33;100290.69;;;6.35;100.00
7333;BME280;3707;43.618;25.342;2023-02-23T06:23:00;100289.06;;;6.37;100.00
7333;BME280;3707;43.618;25.342;2023-02-23T06:25:27;100295.56;;;6.52;100.00
7333;BME280;3707;43.618;25.342;2023-02-23T06:27:54;100276.09;;;6.34;100.00
7333;BME280;3707;43.618;25.342;2023-02-23T06:30:20;100296.72;;;6.60;100.00
7333;BME280;3707;43.618;25.342;2023-02-23T06:32:48;100302.72;;;6.60;100.00
7333;BME280;3707;43.618;25.342;2023-02-23T06:35:16;100253.00;;;6.37;100.00
7333;BME280;3707;43.618;25.342;2023-02-23T06:37:43;100284.53;;;6.56;100.00
7333;BME280;3707;43.618;25.342;2023-02-23T06:40:10;100302.44;;;6.78;100.00
7333;BME280;3707;43.618;25.342;2023-02-23T06:42:37;100308.50;;;6.78;100.00
7333;BME280;3707;43.618;25.342;2023-02-23T06:45:05;100296.03;;;6.65;100.00
7333;BME280;3707;43.618;25.342;2023-02-23T06:47:32;100320.84;;;6.88;100.00
7333;BME280;3707;43.618;25.342;2023-02-23T06:49:59;100275.28;;;7.13;100.00
7333;BME280;3707;43.618;25.342;2023-02-23T06:52:27;100313.59;;;7.02;100.00
7333;BME280;3707;43.618;25.342;2023-02-23T06:54:54;100315.56;;;7.11;100.00
7333;BME280;3707;43.618;25.342;2023-02-23T06:57:21;100231.38;;;6.58;100.00
7333;BME280;3707;43.618;25.342;2023-02-23T06:59:48;100326.53;;;7.04;100.00
7333;BME280;3707;43.618;25.342;2023-02-23T07:02:15;100324.25;;;7.13;100.00
7333;BME280;3707;43.618;25.342;2023-02-23T07:04:42;100332.28;;;7.22;100.00
7333;BME280;3707;43.618;25.342;2023-02-23T07:07:09;100326.47;;;7.27;100.00
7333;BME280;3707;43.618;25.342;2023-02-23T07:09:39;100329.06;;;7.29;100.00
7333;BME280;3707;43.618;25.342;2023-02-23T07:12:07;100331.09;;;7.39;100.00
7333;BME280;3707;43.618;25.342;2023-02-23T07:14:34;100325.56;;;7.54;100.00
7333;BME280;3707;43.618;25.342;2023-02-23T07:17:02;100328.13;;;7.54;100.00
7333;BME280;3707;43.618;25.342;2023-02-23T07:19:29;100335.06;;;7.55;100.00
7333;BME280;3707;43.618;25.342;2023-02-23T07:21:56;100317.88;;;7.55;100.00
7333;BME280;3707;43.618;25.342;2023-02-23T07:24:23;100335.31;;;7.64;100.00
7333;BME280;3707;43.618;25.342;2023-02-23T07:26:51;100342.63;;;7.77;100.00
7333;BME280;3707;43.618;25.342;2023-02-23T07:29:18;100337.56;;;7.81;100.00
7333;BME280;3707;43.618;25.342;2023-02-23T07:31:48;100335.06;;;7.83;100.00
7333;BME280;3707;43.618;25.342;2023-02-23T07:34:15;100342.31;;;7.96;100.00
7333;BME280;3707;43.618;25.342;2023-02-23T07:36:42;100333.78;;;7.69;100.00
7333;BME280;3707;43.618;25.342;2023-02-23T07:39:09;100342.28;;;7.94;100.00
7333;BME280;3707;43.618;25.342;2023-02-23T07:41:36;100339.94;;;8.02;100.00
7333;BME280;3707;43.618;25.342;2023-02-23T07:44:04;100338.31;;;8.06;100.00
7333;BME280;3707;43.618;25.342;2023-02-23T07:46:31;100349.88;;;8.18;100.00
7333;BME280;3707;43.618;25.342;2023-02-23T07:48:58;100352.66;;;7.96;100.00
7333;BME280;3707;43.618;25.342;2023-02-23T07:51:25;100355.69;;;8.11;100.00
7333;BME280;3707;43.618;25.342;2023-02-23T07:53:51;100334.63;;;7.97;100.00
7333;BME280;3707;43.618;25.342;2023-02-23T07:56:19;100279.94;;;7.81;100.00
7333;BME280;3707;43.618;25.342;2023-02-23T07:58:46;100351.63;;;8.19;100.00
7333;BME280;3707;43.618;25.342;2023-02-23T08:01:17;100356.25;;;8.29;100.00
7333;BME280;3707;43.618;25.342;2023-02-23T08:03:44;100357.16;;;8.31;100.00
7333;BME280;3707;43.618;25.342;2023-02-23T08:06:14;100362.84;;;8.50;100.00
7333;BME280;3707;43.618;25.342;2023-02-23T08:08:42;100364.94;;;8.63;100.00
7333;BME280;3707;43.618;25.342;2023-02-23T08:11:09;100368.59;;;8.71;100.00
7333;BME280;3707;43.618;25.342;2023-02-23T08:13:36;100366.41;;;8.84;100.00
7333;BME280;3707;43.618;25.342;2023-02-23T08:16:04;100363.13;;;8.91;100.00
7333;BME280;3707;43.618;25.342;2023-02-23T08:18:32;100369.13;;;9.23;100.00
7333;BME280;3707;43.618;25.342;2023-02-23T08:20:59;100363.34;;;9.33;100.00
7333;BME280;3707;43.618;25.342;2023-02-23T08:23:28;100350.94;;;9.20;100.00
7333;BME280;3707;43.618;25.342;2023-02-23T08:25:55;100372.41;;;9.16;100.00
7333;BME280;3707;43.618;25.342;2023-02-23T08:28:22;100372.97;;;9.06;100.00
7333;BME280;3707;43.618;25.342;2023-02-23T08:30:49;100377.59;;;9.18;100.00
7333;BME280;3707;43.618;25.342;2023-02-23T08:33:16;100378.06;;;9.02;100.00
7333;BME280;3707;43.618;25.342;2023-02-23T08:35:44;100387.78;;;9.12;100.00
7333;BME280;3707;43.618;25.342;2023-02-23T08:38:11;100382.84;;;9.21;100.00
7333;BME280;3707;43.618;25.342;2023-02-23T08:40:38;100385.56;;;9.25;100.00
7333;BME280;3707;43.618;25.342;2023-02-23T08:43:05;100390.72;;;9.24;100.00
7333;BME280;3707;43.618;25.342;2023-02-23T08:45:32;100387.59;;;9.38;100.00
7333;BME280;3707;43.618;25.342;2023-02-23T08:47:59;100385.06;;;9.40;100.00
7333;BME280;3707;43.618;25.342;2023-02-23T08:50:25;100367.19;;;9.51;100.00
7333;BME280;3707;43.618;25.342;2023-02-23T08:52:54;100395.41;;;9.76;100.00
7333;BME280;3707;43.618;25.342;2023-02-23T08:55:21;100390.72;;;9.97;100.00
7333;BME280;3707;43.618;25.342;2023-02-23T08:57:48;100389.13;;;10.04;100.00
7333;BME280;3707;43.618;25.342;2023-02-23T09:00:16;100381.00;;;9.87;100.00
7333;BME280;3707;43.618;25.342;2023-02-23T09:02:44;100401.59;;;9.81;100.00
7333;BME280;3707;43.618;25.342;2023-02-23T09:05:12;100386.72;;;10.11;100.00
7333;BME280;3707;43.618;25.342;2023-02-23T09:07:40;100404.06;;;10.54;100.00
7333;BME280;3707;43.618;25.342;2023-02-23T09:10:13;100383.94;;;10.86;96.89
7333;BME280;3707;43.618;25.342;2023-02-23T09:12:40;100402.34;;;10.98;95.02
7333;BME280;3707;43.618;25.342;2023-02-23T09:15:08;100400.81;;;11.09;94.27
7333;BME280;3707;43.618;25.342;2023-02-23T09:17:35;100410.50;;;11.21;92.25
7333;BME280;3707;43.618;25.342;2023-02-23T09:20:02;100408.22;;;11.37;90.97
7333;BME280;3707;43.618;25.342;2023-02-23T09:22:29;100407.03;;;11.20;90.48
7333;BME280;3707;43.618;25.342;2023-02-23T09:24:56;100406.59;;;11.44;91.20
7333;BME280;3707;43.618;25.342;2023-02-23T09:27:25;100405.44;;;11.76;88.31
7333;BME280;3707;43.618;25.342;2023-02-23T09:29:51;100407.03;;;11.70;88.08
7333;BME280;3707;43.618;25.342;2023-02-23T09:32:18;100396.78;;;11.26;90.23
7333;BME280;3707;43.618;25.342;2023-02-23T09:34:45;100405.53;;;11.33;91.67
7333;BME280;3707;43.618;25.342;2023-02-23T09:37:13;100389.94;;;11.31;92.20
7333;BME280;3707;43.618;25.342;2023-02-23T09:39:40;100406.84;;;11.08;94.43
7333;BME280;3707;43.618;25.342;2023-02-23T09:42:29;100386.13;;;11.11;93.28
7333;BME280;3707;43.618;25.342;2023-02-23T09:45:11;100406.75;;;11.02;96.54
7333;BME280;3707;43.618;25.342;2023-02-23T09:47:50;100406.78;;;11.05;98.14
7333;BME280;3707;43.618;25.342;2023-02-23T09:50:21;100407.19;;;10.81;99.00
7333;BME280;3707;43.618;25.342;2023-02-23T09:52:52;100404.94;;;10.98;99.82
7333;BME280;3707;43.618;25.342;2023-02-23T09:55:20;100410.81;;;10.89;99.02
7333;BME280;3707;43.618;25.342;2023-02-23T09:57:49;100417.16;;;11.05;99.27
7333;BME280;3707;43.618;25.342;2023-02-23T10:00:19;100419.13;;;11.18;99.12
7333;BME280;3707;43.618;25.342;2023-02-23T10:03:10;100414.03;;;11.24;99.29
7333;BME280;3707;43.618;25.342;2023-02-23T10:05:42;100393.63;;;10.94;100.00
7333;BME280;3707;43.618;25.342;2023-02-23T10:08:19;100393.50;;;10.88;100.00
7333;BME280;3707;43.618;25.342;2023-02-23T10:10:50;100411.38;;;11.20;100.00
7333;BME280;3707;43.618;25.342;2023-02-23T10:13:28;100414.31;;;11.39;100.00
7333;BME280;3707;43.618;25.342;2023-02-23T10:16:03;100413.66;;;11.53;100.00
7333;BME280;3707;43.618;25.342;2023-02-23T10:18:39;100411.38;;;11.71;98.32
7333;BME280;3707;43.618;25.342;2023-02-23T10:21:15;100399.34;;;11.76;98.68
7333;BME280;3707;43.618;25.342;2023-02-23T10:23:47;100408.06;;;11.81;98.52
7333;BME280;3707;43.618;25.342;2023-02-23T10:26:17;100403.09;;;11.95;96.90
7333;BME280;3707;43.618;25.342;2023-02-23T10:28:48;100401.72;;;12.19;95.83
7333;BME280;3707;43.618;25.342;2023-02-23T10:31:29;100407.16;;;12.37;93.02
7333;BME280;3707;43.618;25.342;2023-02-23T10:34:01;100385.31;;;12.23;94.04
7333;BME280;3707;43.618;25.342;2023-02-23T10:36:35;100405.69;;;12.58;92.86
7333;BME280;3707;43.618;25.342;2023-02-23T10:39:05;100401.31;;;12.55;91.09
7333;BME280;3707;43.618;25.342;2023-02-23T10:41:33;100396.16;;;12.58;94.30
7333;BME280;3707;43.618;25.342;2023-02-23T10:44:03;100378.81;;;12.59;90.46
7333;BME280;3707;43.618;25.342;2023-02-23T10:46:35;100392.78;;;12.68;99.23
7333;BME280;3707;43.618;25.342;2023-02-23T10:49:05;100311.38;;;12.02;91.22
7333;BME280;3707;43.618;25.342;2023-02-23T10:51:36;100383.72;;;12.36;92.31
7333;BME280;3707;43.618;25.342;2023-02-23T10:57:04;100379.72;;;12.64;90.86
7333;BME280;3707;43.618;25.342;2023-02-23T10:59:34;100360.81;;;12.06;96.24
7333;BME280;3707;43.618;25.342;2023-02-23T11:02:15;100373.53;;;12.51;92.52
7333;BME280;3707;43.618;25.342;2023-02-23T11:04:53;100372.53;;;12.41;91.45
7333;BME280;3707;43.618;25.342;2023-02-23T11:07:23;100374.44;;;12.55;91.25
7333;BME280;3707;43.618;25.342;2023-02-23T11:09:57;100373.53;;;12.51;89.95
7333;BME280;3707;43.618;25.342;2023-02-23T11:12:25;100376.31;;;12.66;89.77
7333;BME280;3707;43.618;25.342;2023-02-23T11:14:56;100376.69;;;13.04;86.83
7333;BME280;3707;43.618;25.342;2023-02-23T11:17:27;100352.53;;;13.14;85.00
7333;BME280;3707;43.618;25.342;2023-02-23T11:20:03;100367.13;;;13.02;87.13
7333;BME280;3707;43.618;25.342;2023-02-23T11:22:34;100378.25;;;12.84;89.07
7333;BME280;3707;43.618;25.342;2023-02-23T11:25:11;100374.94;;;13.03;89.37
7333;BME280;3707;43.618;25.342;2023-02-23T11:27:45;100377.72;;;13.15;88.72
7333;BME280;3707;43.618;25.342;2023-02-23T11:30:19;100371.88;;;13.44;86.12
7333;BME280;3707;43.618;25.342;2023-02-23T11:32:51;100361.66;;;13.74;83.89
7333;BME280;3707;43.618;25.342;2023-02-23T11:35:28;100371.06;;;13.51;83.70
7333;BME280;3707;43.618;25.342;2023-02-23T11:37:55;100366.06;;;13.76;83.75
7333;BME280;3707;43.618;25.342;2023-02-23T11:40:26;100372.06;;;13.71;82.57
7333;BME280;3707;43.618;25.342;2023-02-23T11:42:54;100374.84;;;13.94;80.30
7333;BME280;3707;43.618;25.342;2023-02-23T11:45:25;100368.78;;;14.02;81.21
7333;BME280;3707;43.618;25.342;2023-02-23T11:47:54;100369.44;;;13.65;81.04
7333;BME280;3707;43.618;25.342;2023-02-23T11:50:26;100368.72;;;13.87;81.23
7333;BME280;3707;43.618;25.342;2023-02-23T11:52:59;100370.56;;;14.06;79.54
7333;BME280;3707;43.618;25.342;2023-02-23T11:55:29;100353.19;;;14.05;78.25
7333;BME280;3707;43.618;25.342;2023-02-23T11:58:07;100371.50;;;14.23;76.00
7333;BME280;3707;43.618;25.342;2023-02-23T12:00:36;100348.91;;;14.19;76.77
7333;BME280;3707;43.618;25.342;2023-02-23T12:03:04;100360.03;;;13.86;78.01
7333;BME280;3707;43.618;25.342;2023-02-23T12:05:31;100355.75;;;14.02;77.27
7333;BME280;3707;43.618;25.342;2023-02-23T12:08:03;100363.66;;;14.17;77.60
7333;BME280;3707;43.618;25.342;2023-02-23T12:10:36;100338.47;;;14.18;77.18
7333;BME280;3707;43.618;25.342;2023-02-23T12:13:13;100362.81;;;14.24;76.55
7333;BME280;3707;43.618;25.342;2023-02-23T12:15:50;100348.03;;;14.20;79.98
7333;BME280;3707;43.618;25.342;2023-02-23T12:18:32;100331.41;;;13.99;78.04
7333;BME280;3707;43.618;25.342;2023-02-23T12:21:12;100356.75;;;14.27;77.23
7333;BME280;3707;43.618;25.342;2023-02-23T12:23:43;100331.50;;;14.18;78.22
7333;BME280;3707;43.618;25.342;2023-02-23T12:26:16;100348.94;;;14.28;78.47
7333;BME280;3707;43.618;25.342;2023-02-23T12:28:47;100346.31;;;14.28;79.08
7333;BME280;3707;43.618;25.342;2023-02-23T12:31:22;100353.38;;;14.43;78.64
7333;BME280;3707;43.618;25.342;2023-02-23T12:33:55;100348.13;;;14.38;78.53
7333;BME280;3707;43.618;25.342;2023-02-23T12:36:26;100348.13;;;14.42;79.04
7333;BME280;3707;43.618;25.342;2023-02-23T12:38:59;100339.31;;;14.15;81.06
7333;BME280;3707;43.618;25.342;2023-02-23T12:41:34;100348.94;;;14.31;80.42
7333;BME280;3707;43.618;25.342;2023-02-23T12:44:07;100337.63;;;14.26;80.26
7333;BME280;3707;43.618;25.342;2023-02-23T12:46:46;100352.53;;;14.44;79.96
7333;BME280;3707;43.618;25.342;2023-02-23T12:49:19;100346.50;;;14.65;77.91
7333;BME280;3707;43.618;25.342;2023-02-23T12:51:54;100359.56;;;14.69;77.07
7333;BME280;3707;43.618;25.342;2023-02-23T12:54:24;100355.19;;;14.67;77.30
7333;BME280;3707;43.618;25.342;2023-02-23T12:56:59;100356.06;;;14.64;77.51
7333;BME280;3707;43.618;25.342;2023-02-23T12:59:44;100355.19;;;14.67;76.35
7333;BME280;3707;43.618;25.342;2023-02-23T13:02:22;100349.06;;;14.51;77.12
7333;BME280;3707;43.618;25.342;2023-02-23T13:05:04;100341.28;;;14.65;76.46
7333;BME280;3707;43.618;25.342;2023-02-23T13:07:38;100356.06;;;14.69;76.48
7333;BME280;3707;43.618;25.342;2023-02-23T13:10:17;100356.94;;;14.71;76.76
7333;BME280;3707;43.618;25.342;2023-02-23T13:12:52;100358.69;;;14.66;76.88
7333;BME280;3707;43.618;25.342;2023-02-23T13:15:32;100354.34;;;14.78;77.23
7333;BME280;3707;43.618;25.342;2023-02-23T13:18:10;100349.94;;;14.55;77.71
7333;BME280;3707;43.618;25.342;2023-02-23T13:20:43;100347.28;;;14.43;78.15
7333;BME280;3707;43.618;25.342;2023-02-23T13:23:20;100344.69;;;14.43;78.53
7333;BME280;3707;43.618;25.342;2023-02-23T13:25:56;100324.69;;;14.46;77.64
7333;BME280;3707;43.618;25.342;2023-02-23T13:28:35;100324.69;;;14.49;77.05
7333;BME280;3707;43.618;25.342;2023-02-23T13:31:03;100343.03;;;14.69;77.12
7333;BME280;3707;43.618;25.342;2023-02-23T13:33:34;100344.72;;;14.58;77.72
7333;BME280;3707;43.618;25.342;2023-02-23T13:36:02;100345.66;;;14.76;81.18